createdAt,value
2023-01-10T00:04:26.961Z,1021.6
2023-01-10T00:10:03.466Z,1021.3
2023-01-10T00:15:37.383Z,1021.7
2023-01-10T00:21:13.640Z,1021.5
2023-01-10T00:26:47.724Z,1021.7
2023-01-10T00:32:25.264Z,1021.8
2023-01-10T00:38:07.075Z,1022.1
2023-01-10T00:43:39.467Z,1022.2
2023-01-10T00:49:11.920Z,1022.7
2023-01-10T00:54:46.496Z,1023.2
2023-01-10T01:00:27.807Z,1023.6
2023-01-10T01:05:44.636Z,1023.8
2023-01-10T01:17:02.204Z,1024
2023-01-10T01:22:20.794Z,1024.1
2023-01-10T01:28:07.502Z,1024.2
2023-01-10T01:33:35.473Z,1024.4
2023-01-10T01:39:07.555Z,1024.5
2023-01-10T01:44:39.062Z,1024.6
2023-01-10T01:50:12.428Z,1024.8
2023-01-10T01:56:11.418Z,1025.1
2023-01-10T02:01:45.791Z,1025.2
2023-01-10T02:07:20.083Z,1025.1
2023-01-10T02:12:32.252Z,1025.4
2023-01-10T02:18:02.554Z,1025.7
2023-01-10T02:23:50.834Z,1025.5
2023-01-10T02:29:25.731Z,1025.5
2023-01-10T02:34:58.899Z,1025.5
2023-01-10T02:40:24.257Z,1025.4
2023-01-10T02:46:00.563Z,1025.3
2023-01-10T02:51:55.586Z,1025
2023-01-10T02:57:03.556Z,1025.1
2023-01-10T03:03:01.703Z,1025.3
2023-01-10T03:08:11.928Z,1025.7
2023-01-10T03:14:06.761Z,1026
2023-01-10T03:19:33.072Z,1026.1
2023-01-10T03:25:15.605Z,1026.2
2023-01-10T03:30:28.424Z,1026.3
2023-01-10T03:36:24.798Z,1026.5
2023-01-10T03:41:55.603Z,1026.5
2023-01-10T03:47:14.457Z,1026.5
2023-01-10T03:52:42.273Z,1026.5
2023-01-10T03:58:41.932Z,1026.8
2023-01-10T04:03:50.611Z,1026.9
2023-01-10T04:09:49.459Z,1026.7
2023-01-10T04:15:17.012Z,1026.8
2023-01-10T04:20:53.896Z,1026.9
2023-01-10T04:32:04.044Z,1027.1
2023-01-10T04:37:32.388Z,1027.3
2023-01-10T04:43:11.462Z,1027.3
2023-01-10T04:48:39.708Z,1027.2
2023-01-10T04:54:13.503Z,1027.5
2023-01-10T04:59:45.486Z,1027.5
2023-01-10T05:05:33.674Z,1027.7
2023-01-10T05:10:49.621Z,1027.8
2023-01-10T05:16:35.566Z,1027.9
2023-01-10T05:22:08.643Z,1027.8
2023-01-10T05:27:35.827Z,1028
2023-01-10T05:33:06.435Z,1028.1
2023-01-10T05:38:57.487Z,1028.4
2023-01-10T05:44:21.447Z,1028.4
2023-01-10T05:49:51.195Z,1028.3
2023-01-10T05:55:21.818Z,1028.4
2023-01-10T06:01:10.093Z,1028.6
2023-01-10T06:06:41.677Z,1028.7
2023-01-10T06:12:09.904Z,1028.8
2023-01-10T06:17:35.667Z,1029
2023-01-10T06:23:21.660Z,1028.9
2023-01-10T06:28:45.716Z,1029
2023-01-10T06:34:35.987Z,1029.1
2023-01-10T06:40:03.269Z,1029.4
2023-01-10T06:45:44.489Z,1029.4
2023-01-10T06:50:54.982Z,1029.5
2023-01-10T06:56:30.238Z,1029.3
2023-01-10T07:02:02.192Z,1029.5
2023-01-10T07:07:57.818Z,1029.7
2023-01-10T07:13:27.982Z,1029.9
2023-01-10T07:18:47.386Z,1029.8
2023-01-10T07:24:27.233Z,1029.8
2023-01-10T07:30:06.568Z,1029.9
2023-01-10T07:35:37.587Z,1029.9
2023-01-10T07:40:52.833Z,1030
2023-01-10T07:46:46.161Z,1030.2
2023-01-10T07:52:12.569Z,1030.3
2023-01-10T07:57:51.691Z,1030.4
2023-01-10T08:03:32.487Z,1030.5
2023-01-10T08:09:07.063Z,1030.6
2023-01-10T08:14:29.574Z,1030.6
2023-01-10T08:20:00.662Z,1030.7
2023-01-10T08:25:23.260Z,1030.5
2023-01-10T08:30:57.778Z,1030.6
2023-01-10T08:36:35.898Z,1030.6
2023-01-10T08:42:07.415Z,1030.7
2023-01-10T08:47:59.037Z,1030.8
2023-01-10T08:53:16.546Z,1030.7
2023-01-10T08:58:49.375Z,1030.7
2023-01-10T09:04:21.761Z,1030.7
2023-01-10T09:09:59.002Z,1030.7
2023-01-10T09:15:34.928Z,1030.7
2023-01-10T09:21:13.449Z,1030.6
2023-01-10T09:26:58.129Z,1030.5
2023-01-10T09:32:33.198Z,1030.6
2023-01-10T09:37:58.324Z,1030.8
2023-01-10T09:43:39.495Z,1030.7
2023-01-10T09:49:10.594Z,1030.6
2023-01-10T09:54:43.161Z,1030.6
2023-01-10T10:00:18.883Z,1030.5
2023-01-10T10:05:46.692Z,1030.5
2023-01-10T10:11:16.534Z,1030.4
2023-01-10T10:17:06.847Z,1030.3
2023-01-10T10:22:51.170Z,1030.1
2023-01-10T10:28:11.431Z,1029.9
2023-01-10T10:33:38.716Z,1029.9
2023-01-10T10:39:32.276Z,1029.9
2023-01-10T10:44:46.720Z,1029.8
2023-01-10T10:50:19.992Z,1029.8
2023-01-10T10:55:54.115Z,1029.8
2023-01-10T11:01:33.908Z,1029.7
2023-01-10T11:07:15.974Z,1029.7
2023-01-10T11:12:52.165Z,1029.6
2023-01-10T11:18:34.200Z,1029.6
2023-01-10T11:24:07.359Z,1029.6
2023-01-10T11:29:45.804Z,1029.4
2023-01-10T11:35:17.544Z,1029.3
2023-01-10T11:40:53.535Z,1029.1
2023-01-10T11:46:23.898Z,1029.1
2023-01-10T11:51:45.171Z,1029.1
2023-01-10T11:57:27.103Z,1029.1
2023-01-10T12:03:09.338Z,1029
2023-01-10T12:08:33.576Z,1028.9
2023-01-10T12:14:01.764Z,1028.8
2023-01-10T12:19:42.828Z,1028.5
2023-01-10T12:25:26.023Z,1028.4
2023-01-10T12:30:45.112Z,1028.5
2023-01-10T12:36:21.775Z,1028.3
2023-01-10T12:42:08.675Z,1028.2
2023-01-10T12:47:33.149Z,1028.1
2023-01-10T12:53:15.401Z,1028
2023-01-10T12:59:06.171Z,1028
2023-01-10T13:04:35.856Z,1027.9
2023-01-10T13:09:50.178Z,1027.8
2023-01-10T13:15:33.530Z,1027.6
2023-01-10T13:21:09.135Z,1027.6
2023-01-10T13:26:54.301Z,1027.5
2023-01-10T13:32:28.131Z,1027.5
2023-01-10T13:38:07.382Z,1027.4
2023-01-10T13:43:41.985Z,1027.3
2023-01-10T13:48:57.783Z,1027.2
2023-01-10T13:54:42.310Z,1027.1
2023-01-10T14:00:30.680Z,1027.2
2023-01-10T14:05:39.432Z,1027.3
2023-01-10T14:11:22.374Z,1027.2
2023-01-10T14:16:50.891Z,1027.2
2023-01-10T14:22:24.866Z,1027.1
2023-01-10T14:28:20.355Z,1027.2
2023-01-10T14:33:50.352Z,1027.1
2023-01-10T14:39:32.130Z,1026.9
2023-01-10T14:45:07.030Z,1027
2023-01-10T14:50:25.016Z,1027.1
2023-01-10T14:56:14.011Z,1027
2023-01-10T15:01:42.639Z,1027.1
2023-01-10T15:07:10.482Z,1027.3
2023-01-10T15:12:39.157Z,1027.3
2023-01-10T15:18:25.860Z,1027.2
2023-01-10T15:23:50.750Z,1027.2
2023-01-10T15:29:34.311Z,1027.2
2023-01-10T15:35:27.273Z,1027.4
2023-01-10T15:40:36.349Z,1027.3
2023-01-10T15:46:11.721Z,1027.3
2023-01-10T15:52:02.276Z,1027.2
2023-01-10T15:57:39.953Z,1027.2
2023-01-10T16:02:52.505Z,1027.1
2023-01-10T16:08:37.548Z,1027.3
2023-01-10T16:14:02.421Z,1027.3
2023-01-10T16:19:43.233Z,1027.1
2023-01-10T16:25:33.375Z,1027.1
2023-01-10T16:30:59.586Z,1027.1
2023-01-10T16:36:35.309Z,1027.2
2023-01-10T16:41:54.340Z,1027.3
2023-01-10T16:47:30.919Z,1027.3
2023-01-10T16:53:19.243Z,1027.3
2023-01-10T16:58:58.100Z,1027.3
2023-01-10T17:04:28.867Z,1027.4
2023-01-10T17:09:45.990Z,1027.3
2023-01-10T17:15:38.070Z,1027.3
2023-01-10T17:21:06.428Z,1027.4
2023-01-10T17:26:44.222Z,1027.4
2023-01-10T17:32:08.800Z,1027.3
2023-01-10T17:37:57.879Z,1027.3
2023-01-10T17:43:10.964Z,1027.3
2023-01-10T17:48:57.337Z,1027.4
2023-01-10T17:54:26.386Z,1027.4
2023-01-10T18:00:12.930Z,1027.4
2023-01-10T18:05:36.555Z,1027.5
2023-01-10T18:11:14.451Z,1027.5
2023-01-10T18:16:58.204Z,1027.5
2023-01-10T18:22:13.979Z,1027.5
2023-01-10T18:27:45.330Z,1027.5
2023-01-10T18:33:41.899Z,1027.5
2023-01-10T18:39:10.517Z,1027.4
2023-01-10T18:44:42.754Z,1027.5
2023-01-10T18:50:19.395Z,1027.4
2023-01-10T18:55:34.231Z,1027.4
2023-01-10T19:01:34.816Z,1027.3
2023-01-10T19:06:51.147Z,1027.3
2023-01-10T19:12:20.826Z,1027.2
2023-01-10T19:17:55.733Z,1027.2
2023-01-10T19:23:36.821Z,1027.4
2023-01-10T19:29:10.656Z,1027.3
2023-01-10T19:34:48.861Z,1027.3
2023-01-10T19:40:33.535Z,1027.4
2023-01-10T19:46:05.079Z,1027.5
2023-01-10T19:51:24.588Z,1027.4
2023-01-10T19:57:04.340Z,1027.2
2023-01-10T20:02:38.007Z,1027.2
2023-01-10T20:08:00.397Z,1027.2
2023-01-10T20:13:36.457Z,1027.4
2023-01-10T20:19:11.215Z,1027.3
2023-01-10T20:24:52.425Z,1027.3
2023-01-10T20:30:36.936Z,1027.2
2023-01-10T20:36:08.531Z,1027.1
2023-01-10T20:41:20.028Z,1027.1
2023-01-10T20:47:02.235Z,1027.2
2023-01-10T20:52:35.323Z,1027.1
2023-01-10T20:58:03.858Z,1027.2
2023-01-10T21:03:57.242Z,1027
2023-01-10T21:09:22.186Z,1027
2023-01-10T21:15:02.939Z,1026.9
2023-01-10T21:20:47.250Z,1026.9
2023-01-10T21:26:04.195Z,1026.8
2023-01-10T21:31:36.941Z,1026.8
2023-01-10T21:37:27.833Z,1026.7
2023-01-10T21:42:41.798Z,1026.7
2023-01-10T21:48:36.459Z,1026.7
2023-01-10T21:54:08.798Z,1026.6
2023-01-10T21:59:45.754Z,1026.7
2023-01-10T22:05:19.837Z,1026.7
2023-01-10T22:10:34.956Z,1026.7
2023-01-10T22:16:25.722Z,1026.7
2023-01-10T22:21:51.624Z,1026.7
2023-01-10T22:27:33.483Z,1026.8
2023-01-10T22:32:53.134Z,1026.7
2023-01-10T22:38:22.306Z,1026.7
2023-01-10T22:43:56.518Z,1026.6
2023-01-10T22:55:05.391Z,1026.6
2023-01-10T23:00:38.712Z,1026.4
2023-01-10T23:06:31.428Z,1026.5
2023-01-10T23:12:03.427Z,1026.4
2023-01-10T23:17:34.557Z,1026.3
2023-01-10T23:23:00.745Z,1026.3
2023-01-10T23:28:38.276Z,1026.2
2023-01-10T23:34:25.846Z,1026.2
2023-01-10T23:40:01.692Z,1026.1
2023-01-10T23:45:27.871Z,1026.1
2023-01-10T23:50:51.587Z,1026.2
2023-01-10T23:56:35.726Z,1026.1
